createdAt,value
2022-12-03T00:00:24.920Z,51.216122
2022-12-03T00:01:24.915Z,51.216248
2022-12-03T00:02:25.035Z,51.216145
2022-12-03T00:03:25.076Z,51.216236
2022-12-03T00:04:24.895Z,51.216267
2022-12-03T00:05:24.883Z,51.216152
2022-12-03T00:06:25.655Z,51.216225
2022-12-03T00:07:24.901Z,51.216400
2022-12-03T00:08:24.914Z,51.216431
2022-12-03T00:09:24.879Z,51.216454
2022-12-03T00:10:24.855Z,51.216389
2022-12-03T00:11:24.851Z,51.216354
2022-12-03T00:12:24.848Z,51.216221
2022-12-03T00:13:24.854Z,51.216125
2022-12-03T00:14:24.853Z,51.216110
2022-12-03T00:15:24.800Z,51.216068
2022-12-03T00:16:24.893Z,51.216110
2022-12-03T00:17:24.870Z,51.216076
2022-12-03T00:18:24.790Z,51.216267
2022-12-03T00:19:24.799Z,51.216232
2022-12-03T00:20:24.791Z,51.216324
2022-12-03T00:21:25.776Z,51.216228
2022-12-03T00:22:24.767Z,51.216305
2022-12-03T00:23:24.758Z,51.216251
2022-12-03T00:24:24.754Z,51.216408
2022-12-03T00:25:24.753Z,51.216301
2022-12-03T00:26:24.739Z,51.216118
2022-12-03T00:27:24.735Z,51.216045
2022-12-03T00:28:24.728Z,51.216263
2022-12-03T00:29:24.714Z,51.216293
2022-12-03T00:30:24.732Z,51.216171
2022-12-03T00:31:24.733Z,51.216171
2022-12-03T00:32:24.709Z,51.215942
2022-12-03T00:33:24.750Z,51.215939
2022-12-03T00:34:24.713Z,51.216000
2022-12-03T00:35:24.670Z,51.215916
2022-12-03T00:36:24.678Z,51.216038
2022-12-03T00:37:24.665Z,51.216042
2022-12-03T00:38:24.720Z,51.216019
2022-12-03T00:39:24.652Z,51.216042
2022-12-03T00:40:24.638Z,51.216187
2022-12-03T00:41:24.683Z,51.216099
2022-12-03T00:42:24.636Z,51.216225
2022-12-03T00:43:24.610Z,51.216137
2022-12-03T00:44:24.619Z,51.216156
2022-12-03T00:45:24.614Z,51.216156
2022-12-03T00:46:24.693Z,51.216167
2022-12-03T00:47:24.581Z,51.216194
2022-12-03T00:48:24.595Z,51.216217
2022-12-03T00:49:24.581Z,51.216026
2022-12-03T00:50:24.573Z,51.215984
2022-12-03T00:51:24.593Z,51.216061
2022-12-03T00:52:24.570Z,51.216057
2022-12-03T00:53:24.552Z,51.216064
2022-12-03T00:54:29.998Z,51.216106
2022-12-03T00:55:26.550Z,51.216148
2022-12-03T00:56:24.567Z,51.216087
2022-12-03T00:57:24.544Z,51.215965
2022-12-03T00:58:24.529Z,51.216026
2022-12-03T00:59:24.518Z,51.216019
2022-12-03T01:00:24.514Z,51.216007
2022-12-03T01:01:24.565Z,51.216156
2022-12-03T01:02:24.609Z,51.216156
2022-12-03T01:03:24.485Z,51.216118
2022-12-03T01:04:24.558Z,51.216087
2022-12-03T01:05:24.468Z,51.216152
2022-12-03T01:06:24.472Z,51.216175
2022-12-03T01:07:24.574Z,51.215969
2022-12-03T01:08:24.449Z,51.215904
2022-12-03T01:09:24.448Z,51.215961
2022-12-03T01:10:24.440Z,51.216034
2022-12-03T01:11:24.433Z,51.215828
2022-12-03T01:12:24.424Z,51.215973
2022-12-03T01:13:24.444Z,51.216042
2022-12-03T01:14:24.417Z,51.215946
2022-12-03T01:15:24.397Z,51.215893
2022-12-03T01:16:24.472Z,51.216129
2022-12-03T01:17:24.385Z,51.216049
2022-12-03T01:18:24.394Z,51.216114
2022-12-03T01:19:24.381Z,51.215885
2022-12-03T01:20:24.369Z,51.215580
2022-12-03T01:21:24.377Z,51.215992
2022-12-03T01:22:24.349Z,51.215961
2022-12-03T01:23:24.354Z,51.216007
2022-12-03T01:24:24.365Z,51.215958
2022-12-03T01:25:24.349Z,51.216042
2022-12-03T01:26:24.325Z,51.216114
2022-12-03T01:27:25.328Z,51.216152
2022-12-03T01:28:24.321Z,51.216080
2022-12-03T01:29:24.320Z,51.215973
2022-12-03T01:30:24.305Z,51.215958
2022-12-03T01:31:24.367Z,51.215965
2022-12-03T01:32:24.289Z,51.215946
2022-12-03T01:33:24.281Z,51.216003
2022-12-03T01:34:24.307Z,51.216095
2022-12-03T01:35:24.275Z,51.216061
2022-12-03T01:36:24.257Z,51.216084
2022-12-03T01:37:24.265Z,51.216110
2022-12-03T01:38:24.257Z,51.216061
2022-12-03T01:39:24.246Z,51.216034
2022-12-03T01:40:24.240Z,51.216015
2022-12-03T01:41:24.248Z,51.216003
2022-12-03T01:42:24.221Z,51.216072
2022-12-03T01:43:24.221Z,51.216038
2022-12-03T01:44:24.216Z,51.216057
2022-12-03T01:45:24.213Z,51.216118
2022-12-03T01:46:24.289Z,51.216099
2022-12-03T01:47:24.197Z,51.216167
2022-12-03T01:48:24.180Z,51.216068
2022-12-03T01:49:24.168Z,51.216019
2022-12-03T01:50:24.189Z,51.216076
2022-12-03T01:51:24.189Z,51.216019
2022-12-03T01:52:24.176Z,51.216045
2022-12-03T01:53:24.149Z,51.216019
2022-12-03T01:54:24.141Z,51.216095
2022-12-03T01:55:24.133Z,51.216137
2022-12-03T01:56:24.141Z,51.216175
2022-12-03T01:57:24.156Z,51.216103
2022-12-03T01:58:24.108Z,51.216084
2022-12-03T01:59:24.108Z,51.216175
2022-12-03T02:00:24.128Z,51.216202
2022-12-03T02:01:24.139Z,51.216076
2022-12-03T02:02:24.111Z,51.216125
2022-12-03T02:03:24.069Z,51.216160
2022-12-03T02:04:25.125Z,51.216225
2022-12-03T02:05:24.077Z,51.216156
2022-12-03T02:06:24.061Z,51.216156
2022-12-03T02:07:24.160Z,51.216206
2022-12-03T02:08:24.069Z,51.216160
2022-12-03T02:09:24.037Z,51.216183
2022-12-03T02:10:24.020Z,51.216236
2022-12-03T02:11:24.036Z,51.216084
2022-12-03T02:12:24.013Z,51.216000
2022-12-03T02:13:24.020Z,51.216103
2022-12-03T02:14:24.007Z,51.216057
2022-12-03T02:15:23.995Z,51.216148
2022-12-03T02:16:24.088Z,51.216003
2022-12-03T02:17:23.993Z,51.216187
2022-12-03T02:18:23.987Z,51.216145
2022-12-03T02:19:23.973Z,51.216095
2022-12-03T02:20:23.980Z,51.216118
2022-12-03T02:21:23.961Z,51.216034
2022-12-03T02:22:23.944Z,51.216003
2022-12-03T02:23:23.948Z,51.216122
2022-12-03T02:24:23.929Z,51.216160
2022-12-03T02:25:23.925Z,51.216091
2022-12-03T02:26:23.919Z,51.216209
2022-12-03T02:27:23.916Z,51.216137
2022-12-03T02:28:23.913Z,51.216167
2022-12-03T02:29:23.895Z,51.216244
2022-12-03T02:30:23.890Z,51.216133
2022-12-03T02:31:23.937Z,51.216148
2022-12-03T02:32:23.868Z,51.216244
2022-12-03T02:33:23.880Z,51.216152
2022-12-03T02:34:23.844Z,51.216125
2022-12-03T02:35:23.852Z,51.215984
2022-12-03T02:36:23.874Z,51.215981
2022-12-03T02:37:23.854Z,51.216053
2022-12-03T02:38:23.909Z,51.216137
2022-12-03T02:39:23.838Z,51.216232
2022-12-03T02:40:23.815Z,51.216137
2022-12-03T02:41:24.821Z,51.216164
2022-12-03T02:42:23.818Z,51.216221
2022-12-03T02:43:23.823Z,51.216171
2022-12-03T02:44:23.806Z,51.216095
2022-12-03T02:45:24.328Z,51.215954
2022-12-03T02:46:23.879Z,51.216095
2022-12-03T02:47:23.779Z,51.216217
2022-12-03T02:48:23.769Z,51.216122
2022-12-03T02:49:23.785Z,51.216133
2022-12-03T02:50:24.755Z,51.216110
2022-12-03T02:51:23.757Z,51.215988
2022-12-03T02:52:23.746Z,51.215923
2022-12-03T02:53:23.742Z,51.215981
2022-12-03T02:54:23.736Z,51.216080
2022-12-03T02:55:23.727Z,51.216091
2022-12-03T02:56:23.764Z,51.215977
2022-12-03T02:57:23.724Z,51.216026
2022-12-03T02:58:23.717Z,51.215981
2022-12-03T02:59:23.692Z,51.216114
2022-12-03T03:00:23.739Z,51.216022
2022-12-03T03:01:23.784Z,51.216122
2022-12-03T03:02:23.759Z,51.216106
2022-12-03T03:03:23.726Z,51.215977
2022-12-03T03:04:23.669Z,51.215992
2022-12-03T03:05:23.667Z,51.216015
2022-12-03T03:06:23.660Z,51.216030
2022-12-03T03:07:23.842Z,51.215969
2022-12-03T03:08:23.643Z,51.215992
2022-12-03T03:09:23.628Z,51.215996
2022-12-03T03:10:23.629Z,51.215946
2022-12-03T03:11:23.616Z,51.216003
2022-12-03T03:12:23.631Z,51.215939
2022-12-03T03:13:23.608Z,51.215900
2022-12-03T03:14:23.596Z,51.216026
2022-12-03T03:15:23.594Z,51.216053
2022-12-03T03:16:23.625Z,51.216099
2022-12-03T03:17:23.572Z,51.216087
2022-12-03T03:18:23.584Z,51.216091
2022-12-03T03:19:23.598Z,51.216053
2022-12-03T03:20:23.548Z,51.216194
2022-12-03T03:21:23.536Z,51.216141
2022-12-03T03:22:23.536Z,51.216076
2022-12-03T03:23:23.530Z,51.216099
2022-12-03T03:24:23.547Z,51.216133
2022-12-03T03:25:23.524Z,51.216171
2022-12-03T03:26:23.512Z,51.216099
2022-12-03T03:27:23.509Z,51.216064
2022-12-03T03:28:23.503Z,51.216099
2022-12-03T03:29:23.491Z,51.216110
2022-12-03T03:30:23.504Z,51.216072
2022-12-03T03:31:23.559Z,51.216137
2022-12-03T03:32:23.476Z,51.216068
2022-12-03T03:33:23.466Z,51.216068
2022-12-03T03:34:23.465Z,51.216061
2022-12-03T03:35:23.475Z,51.216049
2022-12-03T03:36:23.449Z,51.216141
2022-12-03T03:37:23.444Z,51.216141
2022-12-03T03:38:23.432Z,51.216251
2022-12-03T03:39:23.427Z,51.216122
2022-12-03T03:40:23.424Z,51.216198
2022-12-03T03:41:23.452Z,51.216103
2022-12-03T03:42:23.413Z,51.216034
2022-12-03T03:43:23.401Z,51.216145
2022-12-03T03:44:23.392Z,51.216038
2022-12-03T03:45:28.815Z,51.216076
2022-12-03T03:46:25.468Z,51.216080
2022-12-03T03:47:23.368Z,51.216110
2022-12-03T03:48:24.381Z,51.216095
2022-12-03T03:49:23.367Z,51.216091
2022-12-03T03:50:23.360Z,51.216160
2022-12-03T03:51:23.359Z,51.216236
2022-12-03T03:52:23.347Z,51.216072
2022-12-03T03:53:23.327Z,51.216137
2022-12-03T03:54:23.331Z,51.216118
2022-12-03T03:55:23.328Z,51.215965
2022-12-03T03:56:23.319Z,51.215996
2022-12-03T03:57:23.328Z,51.216003
2022-12-03T03:58:23.303Z,51.215855
2022-12-03T03:59:23.288Z,51.215748
2022-12-03T04:00:23.286Z,51.216011
2022-12-03T04:01:23.327Z,51.216331
2022-12-03T04:02:23.308Z,51.216274
2022-12-03T04:03:23.268Z,51.216183
2022-12-03T04:04:23.366Z,51.216095
2022-12-03T04:05:23.251Z,51.216053
2022-12-03T04:06:23.247Z,51.216087
2022-12-03T04:07:23.243Z,51.216221
2022-12-03T04:08:23.391Z,51.216396
2022-12-03T04:09:23.232Z,51.216164
2022-12-03T04:10:23.221Z,51.216061
2022-12-03T04:11:23.211Z,51.216091
2022-12-03T04:12:24.212Z,51.216034
2022-12-03T04:13:23.231Z,51.216034
2022-12-03T04:14:23.200Z,51.216179
2022-12-03T04:15:23.199Z,51.216007
2022-12-03T04:16:23.215Z,51.216103
2022-12-03T04:17:23.180Z,51.216270
2022-12-03T04:18:23.179Z,51.216228
2022-12-03T04:19:23.188Z,51.216099
2022-12-03T04:20:23.156Z,51.216152
2022-12-03T04:21:23.163Z,51.216190
2022-12-03T04:22:23.167Z,51.216152
2022-12-03T04:23:29.288Z,51.216175
2022-12-03T04:24:24.197Z,51.216110
2022-12-03T04:25:23.148Z,51.215988
2022-12-03T04:26:23.121Z,51.216110
2022-12-03T04:27:23.135Z,51.216061
2022-12-03T04:28:23.099Z,51.216000
2022-12-03T04:29:23.099Z,51.216190
2022-12-03T04:30:23.180Z,51.216133
2022-12-03T04:31:23.139Z,51.216087
2022-12-03T04:32:23.091Z,51.216072
2022-12-03T04:33:23.071Z,51.216099
2022-12-03T04:34:23.068Z,51.216068
2022-12-03T04:35:23.133Z,51.216003
2022-12-03T04:36:23.052Z,51.216133
2022-12-03T04:37:23.048Z,51.215992
2022-12-03T04:38:23.130Z,51.215809
2022-12-03T04:39:23.036Z,51.216087
2022-12-03T04:40:23.027Z,51.215988
2022-12-03T04:41:23.023Z,51.216278
2022-12-03T04:42:23.015Z,51.216034
2022-12-03T04:43:23.019Z,51.216171
2022-12-03T04:44:23.003Z,51.216019
2022-12-03T04:45:22.991Z,51.216156
2022-12-03T04:46:23.040Z,51.216080
2022-12-03T04:47:22.979Z,51.216137
2022-12-03T04:48:22.988Z,51.216118
2022-12-03T04:49:22.974Z,51.216202
2022-12-03T04:50:22.959Z,51.216171
2022-12-03T04:51:22.955Z,51.216003
2022-12-03T04:52:22.947Z,51.215969
2022-12-03T04:53:22.938Z,51.216084
2022-12-03T04:54:22.947Z,51.215794
2022-12-03T04:55:22.939Z,51.215950
2022-12-03T04:56:22.915Z,51.215992
2022-12-03T04:57:22.924Z,51.215740
2022-12-03T04:58:22.938Z,51.215866
2022-12-03T04:59:22.903Z,51.215939
2022-12-03T05:00:22.896Z,51.215900
2022-12-03T05:01:22.979Z,51.215759
2022-12-03T05:02:22.945Z,51.215801
2022-12-03T05:03:22.875Z,51.215706
2022-12-03T05:04:22.867Z,51.216091
2022-12-03T05:05:22.862Z,51.215931
2022-12-03T05:06:22.855Z,51.216061
2022-12-03T05:07:22.877Z,51.216053
2022-12-03T05:08:22.842Z,51.216156
2022-12-03T05:09:22.845Z,51.216122
2022-12-03T05:10:22.838Z,51.216164
2022-12-03T05:11:23.779Z,51.216148
2022-12-03T05:12:22.838Z,51.216423
2022-12-03T05:13:22.812Z,51.216496
2022-12-03T05:14:22.831Z,51.216099
2022-12-03T05:15:22.794Z,51.215897
2022-12-03T05:16:22.871Z,51.216217
2022-12-03T05:17:22.774Z,51.216045
2022-12-03T05:18:22.788Z,51.216145
2022-12-03T05:19:22.775Z,51.216034
2022-12-03T05:20:22.782Z,51.215969
2022-12-03T05:21:22.771Z,51.215904
2022-12-03T05:22:22.747Z,51.216148
2022-12-03T05:23:22.738Z,51.216080
2022-12-03T05:24:22.742Z,51.216114
2022-12-03T05:25:22.726Z,51.216091
2022-12-03T05:26:22.751Z,51.216099
2022-12-03T05:27:24.117Z,51.216122
2022-12-03T05:28:23.732Z,51.216011
2022-12-03T05:29:22.773Z,51.216026
2022-12-03T05:30:22.906Z,51.216393
2022-12-03T05:31:22.760Z,51.216515
2022-12-03T05:32:22.682Z,51.216343
2022-12-03T05:33:22.679Z,51.216244
2022-12-03T05:34:22.700Z,51.216156
2022-12-03T05:35:22.670Z,51.216190
2022-12-03T05:36:22.655Z,51.216007
2022-12-03T05:37:22.648Z,51.215897
2022-12-03T05:38:22.638Z,51.215961
2022-12-03T05:39:22.667Z,51.215981
2022-12-03T05:40:22.640Z,51.215870
2022-12-03T05:41:22.628Z,51.215935
2022-12-03T05:42:22.639Z,51.216042
2022-12-03T05:43:22.626Z,51.215992
2022-12-03T05:44:22.602Z,51.216240
2022-12-03T05:45:22.601Z,51.216057
2022-12-03T05:46:22.685Z,51.215961
2022-12-03T05:47:22.602Z,51.215851
2022-12-03T05:48:22.571Z,51.215977
2022-12-03T05:49:22.595Z,51.215897
2022-12-03T05:50:22.568Z,51.215775
2022-12-03T05:51:22.587Z,51.215946
2022-12-03T05:52:22.593Z,51.215843
2022-12-03T05:53:22.551Z,51.216122
2022-12-03T05:54:22.540Z,51.215778
2022-12-03T05:55:22.559Z,51.216381
2022-12-03T05:56:22.525Z,51.216576
2022-12-03T05:57:22.520Z,51.216454
2022-12-03T05:58:22.518Z,51.216099
2022-12-03T05:59:22.510Z,51.216099
2022-12-03T06:00:22.495Z,51.216087
2022-12-03T06:01:22.483Z,51.215897
2022-12-03T06:02:22.572Z,51.215851
2022-12-03T06:03:22.640Z,51.215885
2022-12-03T06:04:22.458Z,51.215878
2022-12-03T06:05:22.465Z,51.215950
2022-12-03T06:06:22.453Z,51.216106
2022-12-03T06:07:22.452Z,51.215794
2022-12-03T06:08:22.462Z,51.215767
2022-12-03T06:09:22.445Z,51.215923
2022-12-03T06:10:22.429Z,51.215950
2022-12-03T06:11:22.421Z,51.215775
2022-12-03T06:12:22.418Z,51.215702
2022-12-03T06:13:22.410Z,51.215473
2022-12-03T06:14:22.421Z,51.215641
2022-12-03T06:15:22.398Z,51.215694
2022-12-03T06:16:22.418Z,51.215790
2022-12-03T06:17:22.386Z,51.215843
2022-12-03T06:18:22.449Z,51.215794
2022-12-03T06:19:22.382Z,51.215553
2022-12-03T06:20:22.370Z,51.215725
2022-12-03T06:21:22.365Z,51.215702
2022-12-03T06:22:22.353Z,51.215637
2022-12-03T06:23:22.346Z,51.215897
2022-12-03T06:24:22.353Z,51.215820
2022-12-03T06:25:22.324Z,51.215824
2022-12-03T06:26:22.325Z,51.215748
2022-12-03T06:27:22.319Z,51.215672
2022-12-03T06:28:22.299Z,51.215584
2022-12-03T06:29:22.331Z,51.215866
2022-12-03T06:30:22.309Z,51.215988
2022-12-03T06:31:22.439Z,51.215858
2022-12-03T06:32:22.292Z,51.215981
2022-12-03T06:33:22.269Z,51.216206
2022-12-03T06:34:23.275Z,51.216129
2022-12-03T06:35:22.271Z,51.216354
2022-12-03T06:36:23.367Z,51.216022
2022-12-03T06:37:22.251Z,51.216122
2022-12-03T06:38:22.256Z,51.216225
2022-12-03T06:39:22.386Z,51.216240
2022-12-03T06:40:22.250Z,51.216209
2022-12-03T06:41:22.221Z,51.216145
2022-12-03T06:42:22.218Z,51.216221
2022-12-03T06:43:22.199Z,51.216209
2022-12-03T06:44:23.205Z,51.216267
2022-12-03T06:45:22.200Z,51.216293
2022-12-03T06:46:22.298Z,51.216026
2022-12-03T06:47:22.178Z,51.216232
2022-12-03T06:48:22.178Z,51.216347
2022-12-03T06:49:22.229Z,51.216160
2022-12-03T06:50:22.148Z,51.216042
2022-12-03T06:51:22.157Z,51.216148
2022-12-03T06:52:22.143Z,51.216057
2022-12-03T06:53:22.142Z,51.216145
2022-12-03T06:54:22.292Z,51.216030
2022-12-03T06:55:22.161Z,51.216202
2022-12-03T06:56:22.715Z,51.216255
2022-12-03T06:57:23.139Z,51.216225
2022-12-03T06:58:22.113Z,51.216339
2022-12-03T06:59:22.102Z,51.216385
2022-12-03T07:00:22.113Z,51.216213
2022-12-03T07:01:22.113Z,51.216148
2022-12-03T07:02:22.079Z,51.215977
2022-12-03T07:03:22.162Z,51.215843
2022-12-03T07:04:22.074Z,51.215904
2022-12-03T07:05:22.067Z,51.216049
2022-12-03T07:06:22.069Z,51.216103
2022-12-03T07:07:22.054Z,51.216114
2022-12-03T07:08:22.051Z,51.216133
2022-12-03T07:09:22.047Z,51.216198
2022-12-03T07:10:22.033Z,51.216274
2022-12-03T07:11:22.039Z,51.216129
2022-12-03T07:12:22.044Z,51.216202
2022-12-03T07:13:22.034Z,51.216125
2022-12-03T07:14:22.003Z,51.216095
2022-12-03T07:15:21.999Z,51.216068
2022-12-03T07:16:22.052Z,51.215931
2022-12-03T07:17:22.005Z,51.215969
2022-12-03T07:18:21.978Z,51.215836
2022-12-03T07:19:22.863Z,51.215862
2022-12-03T07:20:21.982Z,51.215836
2022-12-03T07:21:21.971Z,51.215919
2022-12-03T07:22:21.966Z,51.216038
2022-12-03T07:23:21.970Z,51.216034
2022-12-03T07:24:21.943Z,51.216320
2022-12-03T07:25:23.635Z,51.216381
2022-12-03T07:26:22.937Z,51.216255
2022-12-03T07:27:21.921Z,51.216145
2022-12-03T07:28:21.938Z,51.216084
2022-12-03T07:29:21.921Z,51.216129
2022-12-03T07:30:21.920Z,51.216015
2022-12-03T07:31:21.980Z,51.216084
2022-12-03T07:32:21.899Z,51.216141
2022-12-03T07:33:21.881Z,51.216122
2022-12-03T07:34:22.911Z,51.216141
2022-12-03T07:35:21.879Z,51.216137
2022-12-03T07:36:21.875Z,51.216095
2022-12-03T07:37:23.489Z,51.216152
2022-12-03T07:38:22.876Z,51.216213
2022-12-03T07:39:21.954Z,51.216274
2022-12-03T07:40:21.894Z,51.216282
2022-12-03T07:41:21.878Z,51.216240
2022-12-03T07:42:21.866Z,51.216141
2022-12-03T07:43:21.822Z,51.216061
2022-12-03T07:44:21.831Z,51.216080
2022-12-03T07:45:21.834Z,51.216133
2022-12-03T07:46:21.841Z,51.216068
2022-12-03T07:47:21.811Z,51.216064
2022-12-03T07:48:21.858Z,51.216167
2022-12-03T07:49:21.793Z,51.216118
2022-12-03T07:50:21.784Z,51.216061
2022-12-03T07:51:21.810Z,51.216099
2022-12-03T07:52:21.775Z,51.216122
2022-12-03T07:53:21.758Z,51.216175
2022-12-03T07:54:21.760Z,51.216145
2022-12-03T07:55:21.749Z,51.216133
2022-12-03T07:56:21.770Z,51.216137
2022-12-03T07:57:21.780Z,51.216072
2022-12-03T07:58:21.735Z,51.216133
2022-12-03T07:59:21.714Z,51.216022
2022-12-03T08:00:21.710Z,51.216049
2022-12-03T08:01:21.769Z,51.216141
2022-12-03T08:02:22.028Z,51.216026
2022-12-03T08:03:21.687Z,51.216042
2022-12-03T08:04:22.687Z,51.216087
2022-12-03T08:05:21.685Z,51.216053
2022-12-03T08:06:21.681Z,51.216061
2022-12-03T08:07:21.685Z,51.215981
2022-12-03T08:08:21.663Z,51.216125
2022-12-03T08:09:21.663Z,51.216179
2022-12-03T08:10:21.663Z,51.216087
2022-12-03T08:11:21.671Z,51.216122
2022-12-03T08:12:21.659Z,51.216011
2022-12-03T08:13:21.644Z,51.215801
2022-12-03T08:14:21.614Z,51.215965
2022-12-03T08:15:21.623Z,51.216030
2022-12-03T08:16:21.748Z,51.216122
2022-12-03T08:17:21.604Z,51.216118
2022-12-03T08:18:21.598Z,51.216087
2022-12-03T08:19:21.590Z,51.216061
2022-12-03T08:20:21.575Z,51.215973
2022-12-03T08:21:21.576Z,51.216000
2022-12-03T08:22:21.590Z,51.215981
2022-12-03T08:23:21.622Z,51.216000
2022-12-03T08:24:21.554Z,51.216053
2022-12-03T08:25:21.549Z,51.216145
2022-12-03T08:26:21.542Z,51.216145
2022-12-03T08:27:21.551Z,51.216118
2022-12-03T08:28:21.532Z,51.216068
2022-12-03T08:29:21.530Z,51.216061
2022-12-03T08:30:21.515Z,51.216049
2022-12-03T08:31:21.581Z,51.216057
2022-12-03T08:32:21.555Z,51.216068
2022-12-03T08:33:21.509Z,51.216141
2022-12-03T08:34:21.489Z,51.216137
2022-12-03T08:35:21.523Z,51.216122
2022-12-03T08:36:21.484Z,51.216133
2022-12-03T08:37:21.470Z,51.216022
2022-12-03T08:38:21.470Z,51.215988
2022-12-03T08:39:21.464Z,51.216034
2022-12-03T08:40:21.457Z,51.216122
2022-12-03T08:41:21.447Z,51.216068
2022-12-03T08:42:21.441Z,51.216179
2022-12-03T08:43:21.466Z,51.216179
2022-12-03T08:44:21.426Z,51.216202
2022-12-03T08:45:21.417Z,51.216194
2022-12-03T08:46:21.465Z,51.216072
2022-12-03T08:47:21.399Z,51.216019
2022-12-03T08:48:21.407Z,51.216068
2022-12-03T08:49:21.396Z,51.216049
2022-12-03T08:50:21.386Z,51.216011
2022-12-03T08:51:21.374Z,51.216129
2022-12-03T08:52:21.437Z,51.216015
2022-12-03T08:53:21.371Z,51.216053
2022-12-03T08:54:21.363Z,51.215996
2022-12-03T08:55:21.355Z,51.215870
2022-12-03T08:56:21.352Z,51.215923
2022-12-03T08:57:21.352Z,51.215919
2022-12-03T08:58:21.370Z,51.215919
2022-12-03T08:59:21.342Z,51.216038
2022-12-03T09:00:21.318Z,51.216034
2022-12-03T09:01:21.380Z,51.216129
2022-12-03T09:02:21.312Z,51.216053
2022-12-03T09:03:21.294Z,51.215992
2022-12-03T09:04:21.413Z,51.216000
2022-12-03T09:05:21.294Z,51.216015
2022-12-03T09:06:21.281Z,51.215897
2022-12-03T09:07:21.273Z,51.215801
2022-12-03T09:08:21.316Z,51.215981
2022-12-03T09:09:21.270Z,51.215923
2022-12-03T09:10:21.256Z,51.215889
2022-12-03T09:11:21.247Z,51.215714
2022-12-03T09:12:21.266Z,51.215912
2022-12-03T09:13:21.241Z,51.216206
2022-12-03T09:14:21.284Z,51.215981
2022-12-03T09:15:21.223Z,51.215996
2022-12-03T09:16:21.299Z,51.216011
2022-12-03T09:17:21.234Z,51.216003
2022-12-03T09:18:21.207Z,51.216015
2022-12-03T09:19:21.193Z,51.216015
2022-12-03T09:20:21.195Z,51.215816
2022-12-03T09:21:21.215Z,51.215866
2022-12-03T09:22:21.167Z,51.215813
2022-12-03T09:23:21.190Z,51.215824
2022-12-03T09:24:21.167Z,51.215900
2022-12-03T09:25:21.181Z,51.215698
2022-12-03T09:26:21.159Z,51.215832
2022-12-03T09:27:21.164Z,51.215885
2022-12-03T09:28:21.134Z,51.215919
2022-12-03T09:29:21.133Z,51.216084
2022-12-03T09:30:21.182Z,51.215889
2022-12-03T09:31:21.141Z,51.216335
2022-12-03T09:32:21.222Z,51.216259
2022-12-03T09:33:21.109Z,51.216518
2022-12-03T09:34:21.093Z,51.216522
2022-12-03T09:35:21.096Z,51.216358
2022-12-03T09:36:21.097Z,51.216118
2022-12-03T09:37:21.132Z,51.216190
2022-12-03T09:38:21.073Z,51.216106
2022-12-03T09:39:21.068Z,51.216072
2022-12-03T09:40:21.084Z,51.216129
2022-12-03T09:41:21.051Z,51.216118
2022-12-03T09:42:21.050Z,51.216167
2022-12-03T09:43:21.030Z,51.216038
2022-12-03T09:44:21.027Z,51.216122
2022-12-03T09:45:21.024Z,51.216194
2022-12-03T09:46:21.070Z,51.216175
2022-12-03T09:47:21.011Z,51.216297
2022-12-03T09:48:21.024Z,51.216164
2022-12-03T09:49:20.991Z,51.216019
2022-12-03T09:50:21.080Z,51.215996
2022-12-03T09:51:21.983Z,51.216206
2022-12-03T09:52:20.974Z,51.216267
2022-12-03T09:53:20.971Z,51.216122
2022-12-03T09:54:20.968Z,51.216049
2022-12-03T09:55:20.957Z,51.216129
2022-12-03T09:56:20.952Z,51.216137
2022-12-03T09:57:20.954Z,51.216061
2022-12-03T09:58:20.927Z,51.216064
2022-12-03T09:59:20.939Z,51.216080
2022-12-03T10:00:20.969Z,51.216118
2022-12-03T10:01:21.009Z,51.216122
2022-12-03T10:02:20.898Z,51.216080
2022-12-03T10:03:24.108Z,51.216061
2022-12-03T10:04:21.970Z,51.216103
2022-12-03T10:05:20.936Z,51.216133
2022-12-03T10:06:20.911Z,51.216171
2022-12-03T10:07:20.892Z,51.216202
2022-12-03T10:08:20.969Z,51.216213
2022-12-03T10:09:20.914Z,51.216236
2022-12-03T10:10:20.881Z,51.216221
2022-12-03T10:11:20.852Z,51.216171
2022-12-03T10:12:20.850Z,51.216133
2022-12-03T10:13:25.487Z,51.216038
2022-12-03T10:14:22.816Z,51.216080
2022-12-03T10:15:20.841Z,51.216084
2022-12-03T10:16:21.185Z,51.216133
2022-12-03T10:17:20.811Z,51.216152
2022-12-03T10:18:20.795Z,51.216190
2022-12-03T10:19:20.800Z,51.216228
2022-12-03T10:20:20.816Z,51.216209
2022-12-03T10:21:20.815Z,51.216232
2022-12-03T10:22:20.811Z,51.216187
2022-12-03T10:23:20.785Z,51.216106
2022-12-03T10:24:20.848Z,51.216095
2022-12-03T10:25:21.264Z,51.216091
2022-12-03T10:26:20.751Z,51.216129
2022-12-03T10:27:20.748Z,51.216122
2022-12-03T10:28:20.740Z,51.216118
2022-12-03T10:29:20.761Z,51.216118
2022-12-03T10:30:20.718Z,51.216042
2022-12-03T10:31:20.778Z,51.216061
2022-12-03T10:32:20.725Z,51.216118
2022-12-03T10:33:20.708Z,51.216156
2022-12-03T10:34:20.698Z,51.216183
2022-12-03T10:35:20.711Z,51.216221
2022-12-03T10:36:20.693Z,51.216209
2022-12-03T10:37:20.689Z,51.216160
2022-12-03T10:38:20.677Z,51.216160
2022-12-03T10:39:20.658Z,51.216030
2022-12-03T10:40:20.663Z,51.216156
2022-12-03T10:41:20.678Z,51.216152
2022-12-03T10:42:20.642Z,51.216171
2022-12-03T10:43:21.638Z,51.216129
2022-12-03T10:44:20.629Z,51.216160
2022-12-03T10:45:20.617Z,51.216187
2022-12-03T10:46:20.747Z,51.216221
2022-12-03T10:47:20.794Z,51.216267
2022-12-03T10:48:20.602Z,51.216152
2022-12-03T10:49:20.599Z,51.216118
2022-12-03T10:50:20.597Z,51.216301
2022-12-03T10:51:20.582Z,51.216248
2022-12-03T10:52:25.469Z,51.216190
2022-12-03T10:53:22.585Z,51.216240
2022-12-03T10:54:20.562Z,51.216278
2022-12-03T10:55:20.557Z,51.216213
2022-12-03T10:56:20.549Z,51.216148
2022-12-03T10:57:20.571Z,51.216106
2022-12-03T10:58:20.553Z,51.216183
2022-12-03T10:59:20.528Z,51.216164
2022-12-03T11:00:20.514Z,51.216061
2022-12-03T11:01:20.564Z,51.216080
2022-12-03T11:02:20.508Z,51.215927
2022-12-03T11:03:20.543Z,51.215954
2022-12-03T11:04:20.498Z,51.216011
2022-12-03T11:05:20.497Z,51.216103
2022-12-03T11:06:20.495Z,51.216282
2022-12-03T11:07:20.470Z,51.216286
2022-12-03T11:08:20.554Z,51.216164
2022-12-03T11:09:20.466Z,51.216045
2022-12-03T11:10:20.461Z,51.216110
2022-12-03T11:11:20.457Z,51.216194
2022-12-03T11:12:20.442Z,51.216164
2022-12-03T11:13:20.464Z,51.215984
2022-12-03T11:14:23.039Z,51.216137
2022-12-03T11:15:21.426Z,51.216110
2022-12-03T11:16:20.473Z,51.215973
2022-12-03T11:17:20.410Z,51.216164
2022-12-03T11:18:20.404Z,51.216167
2022-12-03T11:19:20.395Z,51.216053
2022-12-03T11:20:22.982Z,51.216255
2022-12-03T11:21:21.381Z,51.216209
2022-12-03T11:22:20.373Z,51.216057
2022-12-03T11:23:20.385Z,51.215744
2022-12-03T11:24:20.473Z,51.215950